Time;durP1;ratioP1;P1;durP2;ratioP2;P2;SDS_P1;SDS_P2;PMS_P1;PMS_P2;Temp;Humidity;BMP_temperature;BMP_pressure;BME280_temperature;BME280_humidity;BME280_pressure;Samples;Min_cycle;Max_cycle;Signal;HPM_P1;HPM_P2
2023/06/04 00:00:25;;;;;;;1.15;0.68;;;23.20;39.20;;;;;;4874306;28;100039;-85
2023/06/04 00:02:51;;;;;;;0.93;0.50;;;23.20;39.40;;;;;;4871079;28;93240;-86
2023/06/04 00:05:17;;;;;;;1.17;0.80;;;23.20;39.50;;;;;;4864260;28;93653;-91
2023/06/04 00:07:44;;;;;;;0.75;0.63;;;23.20;39.70;;;;;;4868353;28;92775;-92
2023/06/04 00:10:09;;;;;;;0.70;0.70;;;23.20;39.70;;;;;;4869468;28;91722;-86
2023/06/04 00:12:35;;;;;;;1.88;1.13;;;23.20;39.70;;;;;;4868644;28;93386;-86
2023/06/04 00:15:01;;;;;;;0.85;0.70;;;23.20;39.70;;;;;;4868466;28;92666;-85
2023/06/04 00:17:27;;;;;;;3.15;0.73;;;23.10;39.80;;;;;;4867350;28;93690;-86
2023/06/04 00:19:52;;;;;;;0.95;0.80;;;23.10;39.90;;;;;;4866499;28;92551;-89
2023/06/04 00:22:18;;;;;;;0.82;0.73;;;23.10;39.90;;;;;;4883438;28;94727;-89
2023/06/04 00:24:44;;;;;;;0.85;0.65;;;23.10;40.00;;;;;;4867856;28;92484;-85
2023/06/04 00:27:09;;;;;;;0.90;0.70;;;23.10;40.00;;;;;;4867584;28;92555;-87
2023/06/04 00:29:35;;;;;;;1.08;0.63;;;23.10;40.00;;;;;;4867924;28;92543;-85
2023/06/04 00:32:01;;;;;;;1.13;0.65;;;23.10;40.00;;;;;;4865802;28;95649;-88
2023/06/04 00:34:27;;;;;;;1.55;0.82;;;23.10;40.00;;;;;;4866494;28;92655;-85
2023/06/04 00:36:53;;;;;;;0.90;0.80;;;23.10;40.10;;;;;;4866634;28;92055;-90
2023/06/04 00:39:18;;;;;;;0.95;0.75;;;23.10;40.20;;;;;;4867589;28;92579;-87
2023/06/04 00:41:44;;;;;;;1.13;0.70;;;23.10;40.10;;;;;;4866321;28;94346;-88
2023/06/04 00:44:11;;;;;;;0.95;0.63;;;23.10;40.10;;;;;;4865969;28;96368;-91
2023/06/04 00:46:37;;;;;;;1.20;0.85;;;23.10;40.10;;;;;;4868062;28;92805;-89
2023/06/04 00:49:03;;;;;;;0.70;0.60;;;23.10;40.20;;;;;;4869470;28;93834;-87
2023/06/04 00:51:30;;;;;;;0.80;0.80;;;23.10;40.10;;;;;;4867270;28;92791;-87
2023/06/04 00:53:57;;;;;;;0.77;0.75;;;23.10;40.10;;;;;;4866202;28;95084;-88
2023/06/04 00:56:22;;;;;;;0.70;0.68;;;23.10;40.10;;;;;;4867795;28;92229;-85
2023/06/04 00:58:48;;;;;;;1.13;0.73;;;23.10;40.00;;;;;;4866404;28;91743;-87
2023/06/04 01:01:25;;;;;;;0.88;0.60;;;23.10;40.20;;;;;;4865359;28;94379;-90
2023/06/04 01:03:54;;;;;;;0.60;0.50;;;23.10;40.30;;;;;;4867536;28;97171;-86
2023/06/04 01:06:43;;;;;;;0.90;0.70;;;23.10;40.20;;;;;;4866491;28;93992;-89
2023/06/04 01:09:10;;;;;;;0.68;0.50;;;23.10;40.40;;;;;;4867689;28;92998;-88
2023/06/04 01:11:38;;;;;;;0.60;0.60;;;23.10;40.30;;;;;;4868152;28;93102;-89
2023/06/04 01:14:09;;;;;;;0.90;0.70;;;23.10;40.30;;;;;;4867684;28;92503;-87
2023/06/04 01:17:01;;;;;;;0.63;0.63;;;23.10;40.40;;;;;;4866420;28;93200;-89
2023/06/04 01:19:59;;;;;;;1.02;0.70;;;23.10;40.50;;;;;;4867091;28;92873;-86
2023/06/04 01:22:43;;;;;;;1.00;0.70;;;23.10;40.50;;;;;;4866823;28;92871;-83
2023/06/04 01:25:34;;;;;;;0.90;0.70;;;23.10;40.70;;;;;;4881296;28;93949;-86
2023/06/04 01:28:03;;;;;;;1.02;0.75;;;23.10;40.70;;;;;;4866187;28;92335;-87
2023/06/04 01:30:32;;;;;;;0.77;0.65;;;23.10;40.70;;;;;;4865803;28;93186;-86
2023/06/04 01:32:58;;;;;;;;;;;23.00;40.80;;;;;;4866449;28;93768;-86
2023/06/04 01:35:26;;;;;;;0.60;0.60;;;23.10;40.80;;;;;;4866286;28;93916;-87
2023/06/04 01:37:52;;;;;;;1.85;0.80;;;23.00;40.90;;;;;;4865742;28;92419;-86
2023/06/04 01:40:18;;;;;;;0.60;0.60;;;23.00;40.90;;;;;;4865615;28;93022;-86
2023/06/04 01:42:44;;;;;;;0.93;0.80;;;23.00;41.10;;;;;;4865928;28;93691;-86
2023/06/04 01:45:10;;;;;;;1.20;0.52;;;23.00;41.00;;;;;;4866056;28;92886;-90
2023/06/04 01:47:36;;;;;;;0.60;0.60;;;23.10;41.10;;;;;;4870915;28;93241;-90
2023/06/04 01:50:03;;;;;;;0.75;0.50;;;23.00;41.00;;;;;;4869932;28;91726;-85
2023/06/04 01:52:28;;;;;;;0.50;0.50;;;23.00;41.10;;;;;;4868995;28;94034;-85
2023/06/04 01:54:54;;;;;;;0.70;0.60;;;23.00;41.10;;;;;;4883927;28;92977;-89
2023/06/04 01:57:21;;;;;;;1.10;0.60;;;23.00;41.20;;;;;;4868508;28;93424;-88
2023/06/04 01:59:47;;;;;;;0.98;0.88;;;23.00;41.10;;;;;;4869796;28;92447;-86
2023/06/04 02:02:13;;;;;;;1.52;0.70;;;23.00;41.30;;;;;;4870047;28;93747;-87
2023/06/04 02:04:41;;;;;;;1.10;0.70;;;23.00;41.50;;;;;;4868367;28;95445;-89
2023/06/04 02:07:08;;;;;;;0.75;0.65;;;23.00;41.40;;;;;;4871277;28;92421;-91
2023/06/04 02:09:34;;;;;;;0.70;0.60;;;23.00;41.40;;;;;;4871245;28;92948;-89
2023/06/04 02:12:00;;;;;;;0.52;0.52;;;23.00;41.40;;;;;;4868941;28;93722;-86
2023/06/04 02:14:26;;;;;;;1.00;0.60;;;23.00;41.50;;;;;;4868793;28;94172;-87
2023/06/04 02:16:53;;;;;;;0.68;0.68;;;23.00;41.50;;;;;;4869484;28;92604;-87
2023/06/04 02:19:20;;;;;;;1.02;0.60;;;23.00;41.60;;;;;;4870688;28;93095;-89
2023/06/04 02:21:46;;;;;;;0.82;0.73;;;23.00;41.60;;;;;;4868949;28;93973;-86
2023/06/04 02:24:12;;;;;;;0.77;0.70;;;23.00;41.70;;;;;;4869792;28;94269;-87
2023/06/04 02:26:38;;;;;;;0.60;0.60;;;23.00;41.70;;;;;;4869548;28;93393;-90
2023/06/04 02:29:04;;;;;;;0.80;0.70;;;23.00;41.50;;;;;;4869474;28;92490;-89
2023/06/04 02:31:30;;;;;;;0.85;0.70;;;23.00;41.90;;;;;;4869167;28;92970;-89
2023/06/04 02:33:56;;;;;;;0.70;0.70;;;23.00;41.80;;;;;;4870526;28;93120;-86
2023/06/04 02:36:22;;;;;;;0.70;0.70;;;23.00;41.90;;;;;;4868806;28;93058;-86
2023/06/04 02:38:47;;;;;;;0.95;0.70;;;23.00;41.80;;;;;;4869635;28;91692;-87
2023/06/04 02:41:13;;;;;;;0.68;0.60;;;23.00;41.90;;;;;;4867552;28;95807;-84
2023/06/04 02:43:38;;;;;;;1.08;0.60;;;23.00;41.90;;;;;;4866283;28;94991;-87
2023/06/04 02:46:06;;;;;;;0.90;0.73;;;23.00;42.00;;;;;;4869321;28;93959;-86
2023/06/04 02:48:31;;;;;;;1.30;0.80;;;23.00;42.30;;;;;;4867222;28;93025;-86
2023/06/04 02:50:57;;;;;;;0.63;0.63;;;22.90;42.10;;;;;;4866074;28;95122;-90
2023/06/04 02:53:23;;;;;;;1.42;0.82;;;23.00;42.20;;;;;;4868685;28;92907;-87
2023/06/04 02:55:50;;;;;;;0.60;0.60;;;23.00;42.20;;;;;;4869833;28;92753;-86
2023/06/04 02:58:17;;;;;;;0.68;0.60;;;22.90;42.50;;;;;;4851660;28;92301;-91
2023/06/04 03:00:43;;;;;;;0.55;0.55;;;22.90;42.40;;;;;;4867032;28;94605;-86
2023/06/04 03:03:08;;;;;;;1.20;0.82;;;22.90;42.30;;;;;;4868419;28;95089;-87
2023/06/04 03:05:36;;;;;;;0.63;0.60;;;22.90;42.20;;;;;;4867668;28;92863;-86
2023/06/04 03:08:03;;;;;;;0.80;0.60;;;23.00;42.50;;;;;;4867774;28;92577;-88
2023/06/04 03:10:30;;;;;;;0.95;0.60;;;22.90;42.40;;;;;;4869065;28;93348;-87
2023/06/04 03:12:56;;;;;;;0.77;0.50;;;22.90;42.50;;;;;;4868381;28;94985;-87
2023/06/04 03:15:22;;;;;;;0.45;0.45;;;22.90;42.60;;;;;;4866372;28;93150;-87
2023/06/04 03:17:48;;;;;;;0.52;0.52;;;22.90;42.50;;;;;;4867684;28;92566;-87
2023/06/04 03:20:14;;;;;;;0.52;0.52;;;22.90;42.50;;;;;;4867889;28;92762;-86
2023/06/04 03:22:40;;;;;;;0.60;0.60;;;22.90;42.50;;;;;;4866882;28;93931;-92
2023/06/04 03:25:06;;;;;;;0.88;0.70;;;22.90;42.60;;;;;;4868866;28;92564;-89
2023/06/04 03:27:32;;;;;;;0.40;0.40;;;22.90;42.70;;;;;;4868833;28;91910;-86
2023/06/04 03:29:58;;;;;;;0.60;0.60;;;22.90;42.60;;;;;;4868072;28;93788;-85
2023/06/04 03:32:24;;;;;;;0.70;0.57;;;22.90;42.60;;;;;;4866871;28;95332;-87
2023/06/04 03:34:49;;;;;;;0.63;0.60;;;22.90;42.70;;;;;;4868399;28;93703;-86
2023/06/04 03:37:17;;;;;;;0.93;0.80;;;22.80;42.80;;;;;;4869314;28;92615;-87
2023/06/04 03:39:42;;;;;;;0.70;0.60;;;22.90;42.70;;;;;;4866435;28;95865;-85
2023/06/04 03:42:08;;;;;;;0.80;0.65;;;22.80;42.70;;;;;;4868278;28;92621;-87
2023/06/04 03:44:34;;;;;;;1.73;0.73;;;22.80;42.80;;;;;;4867540;28;92543;-86
2023/06/04 03:47:00;;;;;;;0.90;0.70;;;22.80;42.60;;;;;;4881491;28;92699;-87
2023/06/04 03:49:25;;;;;;;0.52;0.52;;;22.80;42.80;;;;;;4867685;28;93267;-84
2023/06/04 03:51:51;;;;;;;0.80;0.70;;;22.80;42.70;;;;;;4868535;28;92853;-88
2023/06/04 03:54:17;;;;;;;0.47;0.40;;;22.80;42.80;;;;;;4867409;28;92982;-89
2023/06/04 03:56:45;;;;;;;0.88;0.68;;;22.80;42.80;;;;;;4867164;28;92594;-87
2023/06/04 03:59:10;;;;;;;0.60;0.60;;;22.80;42.80;;;;;;4866032;28;93965;-86
2023/06/04 04:01:36;;;;;;;0.90;0.70;;;22.80;42.90;;;;;;4867604;28;94001;-88
2023/06/04 04:04:02;;;;;;;0.60;0.60;;;22.80;42.90;;;;;;4866778;28;92631;-86
2023/06/04 04:06:27;;;;;;;0.60;0.60;;;22.80;43.00;;;;;;4865466;28;92505;-86
2023/06/04 04:08:53;;;;;;;0.82;0.60;;;22.80;43.00;;;;;;4863363;28;96251;-85
2023/06/04 04:11:19;;;;;;;0.95;0.68;;;22.80;43.10;;;;;;4866658;28;93620;-90
2023/06/04 04:13:46;;;;;;;1.35;0.85;;;22.80;43.20;;;;;;4867366;28;93754;-90
2023/06/04 04:16:11;;;;;;;0.90;0.70;;;22.80;43.20;;;;;;4866677;28;91728;-86
2023/06/04 04:18:37;;;;;;;0.80;0.70;;;22.80;43.70;;;;;;4866656;28;92870;-88
2023/06/04 04:21:04;;;;;;;0.57;0.57;;;22.80;43.30;;;;;;4866517;28;92982;-87
2023/06/04 04:23:31;;;;;;;0.80;0.73;;;22.80;43.20;;;;;;4864089;28;93757;-89
2023/06/04 04:25:58;;;;;;;0.75;0.73;;;22.80;43.20;;;;;;4865617;28;92929;-86
2023/06/04 04:28:28;;;;;;;0.55;0.55;;;22.80;43.20;;;;;;4866373;28;96160;-90
2023/06/04 04:30:56;;;;;;;0.85;0.70;;;22.90;43.40;;;;;;4866032;28;98253;-85
2023/06/04 04:33:25;;;;;;;0.77;0.70;;;22.80;43.30;;;;;;4866847;28;92395;-87
2023/06/04 04:35:52;;;;;;;0.60;0.60;;;22.90;43.40;;;;;;4864407;28;92607;-86
2023/06/04 04:38:23;;;;;;;0.90;0.65;;;22.90;43.40;;;;;;4866001;28;92386;-84
2023/06/04 04:40:52;;;;;;;0.65;0.60;;;22.90;43.40;;;;;;4866036;28;92291;-86
2023/06/04 04:43:28;;;;;;;0.60;0.60;;;22.90;43.50;;;;;;4865258;28;92543;-88
2023/06/04 04:45:53;;;;;;;0.80;0.60;;;22.90;43.40;;;;;;4865689;28;92823;-89
2023/06/04 04:48:19;;;;;;;0.90;0.70;;;22.90;43.50;;;;;;4865371;28;93822;-87
2023/06/04 04:50:45;;;;;;;0.70;0.70;;;23.00;43.40;;;;;;4866145;28;94191;-86
2023/06/04 04:53:10;;;;;;;1.25;0.70;;;23.00;43.40;;;;;;4864140;28;92564;-90
2023/06/04 04:55:36;;;;;;;0.95;0.65;;;23.00;43.30;;;;;;4865598;28;93060;-87
2023/06/04 04:58:01;;;;;;;0.50;0.50;;;23.00;43.30;;;;;;4866874;28;93528;-86
2023/06/04 05:00:28;;;;;;;0.70;0.65;;;23.10;43.30;;;;;;4866111;28;93211;-89
2023/06/04 05:02:54;;;;;;;0.85;0.65;;;23.10;43.20;;;;;;4865317;28;92937;-86
2023/06/04 05:05:19;;;;;;;0.70;0.70;;;23.10;43.30;;;;;;4865889;28;91968;-88
2023/06/04 05:07:45;;;;;;;0.70;0.68;;;23.10;43.30;;;;;;4866407;28;93464;-87
2023/06/04 05:10:11;;;;;;;0.52;0.50;;;23.10;43.30;;;;;;4867414;28;93220;-87
2023/06/04 05:12:36;;;;;;;0.80;0.80;;;23.20;43.30;;;;;;4865233;28;94064;-88
2023/06/04 05:15:03;;;;;;;0.50;0.50;;;23.20;43.40;;;;;;4863576;28;93035;-89
2023/06/04 05:17:29;;;;;;;0.43;0.43;;;23.20;43.30;;;;;;4864941;28;92790;-85
2023/06/04 05:20:05;;;;;;;0.50;0.50;;;23.20;43.40;;;;;;4867210;28;93231;-85
2023/06/04 05:22:32;;;;;;;0.80;0.75;;;23.30;43.40;;;;;;4869771;28;92968;-86
2023/06/04 05:24:59;;;;;;;0.70;0.68;;;23.30;43.40;;;;;;4871624;28;92510;-86
2023/06/04 05:27:25;;;;;;;0.65;0.50;;;23.40;43.40;;;;;;4868939;28;93887;-87
2023/06/04 05:29:51;;;;;;;0.68;0.68;;;23.40;43.30;;;;;;4869730;28;93353;-85
2023/06/04 05:32:17;;;;;;;0.60;0.60;;;23.40;43.50;;;;;;4866955;28;93027;-86
2023/06/04 05:34:43;;;;;;;0.68;0.68;;;23.40;43.40;;;;;;4867884;28;92977;-86
2023/06/04 05:37:09;;;;;;;0.60;0.60;;;23.40;43.60;;;;;;4864677;28;94180;-88
2023/06/04 05:39:35;;;;;;;0.50;0.50;;;23.40;43.90;;;;;;4864733;28;93801;-86
2023/06/04 05:42:01;;;;;;;0.90;0.70;;;23.40;43.80;;;;;;4865521;28;92457;-85
2023/06/04 05:44:27;;;;;;;0.80;0.70;;;23.50;43.90;;;;;;4880531;28;92641;-86
2023/06/04 05:46:52;;;;;;;1.05;0.77;;;23.50;43.90;;;;;;4867052;28;93213;-87
2023/06/04 05:49:19;;;;;;;0.55;0.55;;;23.50;43.70;;;;;;4868711;28;92905;-85
2023/06/04 05:51:45;;;;;;;3.20;0.70;;;23.60;43.90;;;;;;4865315;28;92852;-85
2023/06/04 05:54:10;;;;;;;1.05;0.77;;;23.60;43.80;;;;;;4866678;28;92247;-87
2023/06/04 05:56:36;;;;;;;1.10;0.90;;;23.60;43.80;;;;;;4868420;28;92702;-89
2023/06/04 05:59:02;;;;;;;0.55;0.55;;;23.70;43.90;;;;;;4868912;28;93750;-89
2023/06/04 06:01:28;;;;;;;0.70;0.70;;;23.70;44.00;;;;;;4869512;28;93377;-87
2023/06/04 06:03:54;;;;;;;2.50;0.98;;;23.70;43.90;;;;;;4869907;28;92820;-89
2023/06/04 06:06:20;;;;;;;1.60;1.05;;;23.60;43.90;;;;;;4866096;28;94392;-84
2023/06/04 06:08:46;;;;;;;1.70;0.80;;;23.70;43.10;;;;;;4868019;28;93308;-84
2023/06/04 06:11:12;;;;;;;2.92;1.10;;;23.70;42.80;;;;;;4867462;28;92829;-87
2023/06/04 06:13:38;;;;;;;3.75;1.00;;;23.60;42.80;;;;;;4866858;28;92942;-85
2023/06/04 06:16:04;;;;;;;5.25;1.13;;;23.60;43.00;;;;;;4865021;28;96028;-87
2023/06/04 06:18:30;;;;;;;2.50;1.20;;;23.60;43.10;;;;;;4865277;28;95068;-86
2023/06/04 06:20:56;;;;;;;3.58;0.90;;;23.60;43.10;;;;;;4864698;28;92552;-83
2023/06/04 06:23:22;;;;;;;3.88;1.13;;;23.60;43.00;;;;;;4866626;28;92522;-87
2023/06/04 06:25:49;;;;;;;2.30;1.17;;;23.60;42.90;;;;;;4865485;28;93796;-87
2023/06/04 06:28:15;;;;;;;4.05;0.80;;;23.60;42.80;;;;;;4866401;28;93734;-87
2023/06/04 06:30:40;;;;;;;2.75;1.10;;;23.60;42.70;;;;;;4865043;28;92608;-84
2023/06/04 06:33:06;;;;;;;3.63;1.23;;;23.60;42.50;;;;;;4864355;28;92517;-85
2023/06/04 06:35:32;;;;;;;2.75;0.93;;;23.50;42.30;;;;;;4866104;28;93482;-86
2023/06/04 06:37:58;;;;;;;1.50;1.20;;;23.50;42.20;;;;;;4865924;28;92864;-85
2023/06/04 06:40:23;;;;;;;3.63;0.82;;;23.50;42.20;;;;;;4865830;28;92922;-83
2023/06/04 06:42:50;;;;;;;1.83;0.90;;;23.50;42.10;;;;;;4867322;28;91874;-84
2023/06/04 06:45:19;;;;;;;3.60;1.20;;;23.50;41.90;;;;;;4868348;28;93102;-87
2023/06/04 06:47:45;;;;;;;2.92;1.20;;;23.60;41.90;;;;;;4869669;28;93190;-86
2023/06/04 06:50:11;;;;;;;3.40;1.40;;;23.60;41.60;;;;;;4868921;28;93765;-85
2023/06/04 06:52:38;;;;;;;5.40;1.63;;;23.70;41.80;;;;;;4867236;28;93033;-85
2023/06/04 06:55:04;;;;;;;2.47;1.40;;;23.70;41.80;;;;;;4872787;28;92431;-86
2023/06/04 06:57:30;;;;;;;113.82;23.25;;;23.80;41.50;;;;;;4869174;28;93474;-87
2023/06/04 06:59:56;;;;;;;44.05;9.20;;;23.80;41.50;;;;;;4868015;28;92764;-87
2023/06/04 07:02:22;;;;;;;38.40;7.18;;;23.80;41.60;;;;;;4868750;28;92712;-89
2023/06/04 07:04:48;;;;;;;37.40;7.45;;;23.80;41.80;;;;;;4883413;28;94129;-90
2023/06/04 07:07:13;;;;;;;35.60;7.35;;;23.70;41.70;;;;;;4871217;28;92801;-85
2023/06/04 07:09:39;;;;;;;38.47;8.80;;;23.60;41.40;;;;;;4869815;28;92818;-91
2023/06/04 07:12:06;;;;;;;42.17;9.18;;;23.70;40.60;;;;;;4869834;28;92705;-87
2023/06/04 07:14:32;;;;;;;48.97;8.35;;;23.70;41.20;;;;;;4866338;28;96568;-91
2023/06/04 07:16:57;;;;;;;37.40;6.95;;;23.70;40.60;;;;;;4864627;28;96514;-91
2023/06/04 07:19:23;;;;;;;37.72;8.80;;;23.70;40.50;;;;;;4867060;28;92585;-86
2023/06/04 07:21:49;;;;;;;36.83;8.10;;;23.60;41.00;;;;;;4865446;28;92748;-91
2023/06/04 07:24:15;;;;;;;30.10;7.20;;;23.60;40.70;;;;;;4863808;28;93636;-89
2023/06/04 07:26:40;;;;;;;36.75;7.97;;;23.60;40.60;;;;;;4863834;28;92673;-87
2023/06/04 07:29:07;;;;;;;25.85;6.45;;;23.50;40.70;;;;;;4864230;28;93609;-88
2023/06/04 07:31:32;;;;;;;22.10;6.03;;;23.60;40.60;;;;;;4864070;28;92296;-84
2023/06/04 07:33:58;;;;;;;17.67;4.95;;;23.50;40.90;;;;;;4865246;28;92642;-88
2023/06/04 07:36:23;;;;;;;17.65;5.70;;;23.50;40.70;;;;;;4868233;28;92413;-85
2023/06/04 07:38:49;;;;;;;20.65;5.25;;;23.60;40.80;;;;;;4868319;28;93991;-88
2023/06/04 07:41:15;;;;;;;18.77;5.47;;;23.50;40.90;;;;;;4866681;28;92844;-86
2023/06/04 07:43:42;;;;;;;31.85;6.53;;;23.50;41.00;;;;;;4866013;28;94719;-90
2023/06/04 07:46:09;;;;;;;32.47;8.13;;;23.50;41.40;;;;;;4862757;28;92403;-86
2023/06/04 07:48:35;;;;;;;32.08;7.75;;;23.60;42.40;;;;;;4864704;28;92737;-90
2023/06/04 07:51:01;;;;;;;23.30;6.80;;;23.60;41.70;;;;;;4866388;28;93199;-87
2023/06/04 07:53:28;;;;;;;17.27;5.65;;;23.60;41.50;;;;;;4867594;28;93226;-86
2023/06/04 07:55:54;;;;;;;24.42;6.38;;;23.50;40.50;;;;;;4867634;28;92511;-90
2023/06/04 07:58:20;;;;;;;19.45;4.45;;;23.40;40.20;;;;;;4863131;28;92703;-89
2023/06/04 08:00:46;;;;;;;14.43;4.60;;;23.40;39.30;;;;;;4868445;28;93013;-86
2023/06/04 08:03:12;;;;;;;20.90;5.82;;;23.40;40.30;;;;;;4864050;28;95302;-89
2023/06/04 08:05:46;;;;;;;16.98;4.63;;;23.40;41.10;;;;;;4996325;27;86587;-85
2023/06/04 08:08:12;;;;;;;18.23;4.50;;;23.50;41.30;;;;;;4984862;28;86151;-84
2023/06/04 08:10:39;;;;;;;16.45;5.15;;;23.50;41.10;;;;;;4984504;28;86196;-89
2023/06/04 08:13:05;;;;;;;15.82;4.85;;;23.50;41.10;;;;;;4986081;28;86230;-86
2023/06/04 08:15:31;;;;;;;15.82;4.82;;;23.50;41.20;;;;;;4984866;28;85931;-86
2023/06/04 08:17:57;;;;;;;17.52;5.50;;;23.50;41.00;;;;;;4985565;28;86122;-92
2023/06/04 08:20:23;;;;;;;16.02;4.85;;;23.50;40.90;;;;;;4974999;28;86132;-91
2023/06/04 08:22:49;;;;;;;10.15;3.88;;;23.50;41.00;;;;;;4986578;28;87116;-88
2023/06/04 08:25:15;;;;;;;15.52;3.60;;;23.50;41.10;;;;;;4977860;28;89278;-90
2023/06/04 08:27:42;;;;;;;16.58;3.70;;;23.50;40.40;;;;;;4984914;28;86411;-84
2023/06/04 08:30:09;;;;;;;9.63;3.67;;;23.50;40.70;;;;;;4984996;28;86767;-85
2023/06/04 08:32:35;;;;;;;14.48;3.70;;;23.50;40.90;;;;;;4984745;28;86138;-85
2023/06/04 08:35:01;;;;;;;11.63;3.67;;;23.50;41.20;;;;;;4983426;28;86254;-87
2023/06/04 08:37:26;;;;;;;14.38;3.72;;;23.60;41.30;;;;;;4977005;28;86532;-84
2023/06/04 08:39:52;;;;;;;12.98;3.45;;;23.60;40.80;;;;;;4986358;28;85627;-89
2023/06/04 08:42:32;;;;;;;9.25;2.63;;;23.50;41.40;;;;;;4984566;28;86745;-87
2023/06/04 08:44:58;;;;;;;8.18;3.30;;;23.50;40.60;;;;;;4982706;28;86582;-89
2023/06/04 08:47:26;;;;;;;9.70;2.88;;;23.50;41.30;;;;;;4972803;28;86098;-84
2023/06/04 08:49:52;;;;;;;5.10;2.70;;;23.50;41.50;;;;;;4982753;28;86316;-86
2023/06/04 08:52:21;;;;;;;6.75;2.63;;;23.50;41.10;;;;;;4984112;28;85978;-86
2023/06/04 08:54:51;;;;;;;8.27;2.85;;;23.50;41.10;;;;;;4983506;28;86204;-86
2023/06/04 08:57:19;;;;;;;6.57;2.15;;;23.50;40.40;;;;;;4997680;28;86324;-83
2023/06/04 08:59:49;;;;;;;5.75;2.03;;;23.50;40.80;;;;;;4973276;28;86832;-84
2023/06/04 09:02:15;;;;;;;8.38;2.10;;;23.50;39.70;;;;;;4972984;28;89263;-90
2023/06/04 09:04:42;;;;;;;4.93;1.90;;;23.50;40.80;;;;;;4980148;28;89255;-84
2023/06/04 09:07:10;;;;;;;6.00;2.03;;;23.50;40.00;;;;;;4981287;28;86336;-87
2023/06/04 09:09:39;;;;;;;6.65;2.95;;;23.50;40.40;;;;;;4981053;28;86609;-90
2023/06/04 09:12:08;;;;;;;;;;;23.50;39.60;;;;;;4982720;28;87898;-83
2023/06/04 09:14:34;;;;;;;15.93;3.40;;;23.60;39.40;;;;;;4981525;28;86795;-84
2023/06/04 09:16:59;;;;;;;11.80;3.60;;;23.60;40.20;;;;;;4958712;28;86886;-89
2023/06/04 09:19:25;;;;;;;17.88;4.43;;;23.60;39.90;;;;;;4966716;28;86464;-86
2023/06/04 09:21:59;;;;;;;13.15;4.60;;;23.70;40.80;;;;;;4958972;28;91347;-84
2023/06/04 09:24:38;;;;;;;18.17;4.55;;;23.70;41.10;;;;;;4967338;28;85927;-88
2023/06/04 09:27:11;;;;;;;15.65;4.72;;;23.70;41.50;;;;;;4966960;28;85851;-88
2023/06/04 09:29:36;;;;;;;8.20;2.78;;;23.80;41.50;;;;;;4969206;28;87543;-84
2023/06/04 09:32:02;;;;;;;17.20;4.78;;;23.80;41.70;;;;;;4966383;28;86711;-87
2023/06/04 09:34:28;;;;;;;9.77;3.85;;;23.80;41.90;;;;;;4953726;28;86306;-85
2023/06/04 09:36:55;;;;;;;10.43;3.80;;;23.80;42.30;;;;;;4956540;28;86400;-84
2023/06/04 09:39:20;;;;;;;11.25;3.30;;;23.80;42.80;;;;;;4955558;28;85842;-84
2023/06/04 09:41:58;;;;;;;14.20;3.53;;;23.80;42.90;;;;;;4965567;28;87312;-84
2023/06/04 09:44:23;;;;;;;14.55;4.07;;;23.80;42.90;;;;;;4966742;28;86784;-84
2023/06/04 09:46:58;;;;;;;10.43;2.88;;;23.70;42.90;;;;;;4955109;28;86432;-86
2023/06/04 09:49:24;;;;;;;14.20;3.75;;;23.70;43.10;;;;;;4954432;28;86646;-85
2023/06/04 09:51:50;;;;;;;19.40;5.95;;;23.70;42.90;;;;;;4965278;28;87803;-85
2023/06/04 09:54:16;;;;;;;31.17;9.38;;;23.70;42.70;;;;;;4965539;28;86250;-90
2023/06/04 09:56:42;;;;;;;48.83;13.00;;;23.70;42.40;;;;;;4967307;28;85997;-84
2023/06/04 09:59:12;;;;;;;48.97;13.43;;;23.70;42.30;;;;;;4962555;28;86262;-90
2023/06/04 10:01:43;;;;;;;52.72;14.13;;;23.70;42.00;;;;;;4964527;28;87923;-89
2023/06/04 10:04:11;;;;;;;54.75;13.90;;;23.70;42.00;;;;;;4965526;28;86704;-88
2023/06/04 10:06:38;;;;;;;38.35;12.35;;;23.70;42.10;;;;;;4967526;28;86749;-85
2023/06/04 10:09:08;;;;;;;52.47;14.95;;;23.70;42.30;;;;;;4967589;28;86462;-84
2023/06/04 10:11:37;;;;;;;41.75;11.90;;;23.70;42.50;;;;;;4966836;28;86864;-84
2023/06/04 10:14:08;;;;;;;34.60;11.38;;;23.70;42.70;;;;;;4967991;28;86814;-84
2023/06/04 10:16:36;;;;;;;36.28;9.75;;;23.70;43.00;;;;;;4956569;28;87261;-85
2023/06/04 10:19:04;;;;;;;31.20;10.10;;;23.70;42.80;;;;;;4970364;28;86436;-84
2023/06/04 10:21:34;;;;;;;28.20;10.70;;;23.70;42.80;;;;;;4968457;28;93356;-84
2023/06/04 10:24:00;;;;;;;34.00;9.48;;;23.70;42.80;;;;;;4967210;28;87077;-83
2023/06/04 10:26:26;;;;;;;29.10;9.15;;;23.70;42.30;;;;;;4972106;28;87116;-85
2023/06/04 10:28:52;;;;;;;29.27;9.23;;;23.70;42.40;;;;;;4976197;28;86078;-84
2023/06/04 10:31:18;;;;;;;25.83;7.57;;;23.70;42.20;;;;;;4969927;28;89828;-86
2023/06/04 10:33:44;;;;;;;29.98;8.20;;;23.70;42.00;;;;;;4970950;28;86196;-84
2023/06/04 10:36:18;;;;;;;26.30;7.88;;;23.70;41.90;;;;;;4976847;28;86310;-87
2023/06/04 10:38:48;;;;;;;22.20;7.28;;;23.70;41.80;;;;;;4970283;28;85909;-86
2023/06/04 10:41:16;;;;;;;21.60;7.25;;;23.80;41.70;;;;;;4969874;28;87152;-87
2023/06/04 10:43:46;;;;;;;23.10;6.65;;;23.80;41.70;;;;;;4971335;28;86883;-83
2023/06/04 10:46:16;;;;;;;20.13;6.32;;;23.80;41.80;;;;;;4986433;28;86603;-83
2023/06/04 10:48:52;;;;;;;17.50;6.45;;;23.80;41.50;;;;;;4968959;28;86237;-87
2023/06/04 10:51:34;;;;;;;24.60;7.05;;;23.80;41.90;;;;;;4956764;28;87447;-85
2023/06/04 10:54:01;;;;;;;15.90;5.72;;;23.80;41.60;;;;;;4963685;28;88725;-85
2023/06/04 10:56:34;;;;;;;19.73;7.28;;;23.80;41.90;;;;;;4966685;28;86451;-83
2023/06/04 10:59:01;;;;;;;14.10;5.20;;;23.80;41.60;;;;;;4967115;28;86954;-90
2023/06/04 11:01:31;;;;;;;14.35;5.00;;;23.80;41.70;;;;;;4972239;28;86286;-86
2023/06/04 11:03:57;;;;;;;14.25;5.30;;;23.90;41.50;;;;;;4952824;28;87950;-84
2023/06/04 11:06:27;;;;;;;14.57;4.60;;;23.80;41.70;;;;;;4971001;28;85850;-87
2023/06/04 11:09:05;;;;;;;16.10;5.15;;;23.90;41.90;;;;;;4970802;28;86189;-89
2023/06/04 11:11:31;;;;;;;14.45;4.68;;;23.90;42.20;;;;;;4966625;28;87088;-88
2023/06/04 11:14:12;;;;;;;18.48;5.28;;;23.80;42.10;;;;;;4967920;28;86537;-84
2023/06/04 11:16:38;;;;;;;12.02;4.30;;;23.80;42.30;;;;;;4965478;28;85617;-87
2023/06/04 11:19:04;;;;;;;13.23;5.13;;;23.90;42.30;;;;;;4966289;28;85991;-86
2023/06/04 11:21:30;;;;;;;13.90;4.45;;;23.90;41.60;;;;;;4968826;28;89768;-88
2023/06/04 11:23:58;;;;;;;10.05;4.25;;;23.90;41.30;;;;;;4968636;28;86653;-90
2023/06/04 11:26:34;;;;;;;14.10;4.05;;;23.90;42.10;;;;;;4965656;28;86509;-85
2023/06/04 11:29:01;;;;;;;11.60;4.38;;;23.90;39.90;;;;;;4964994;28;85614;-86
2023/06/04 11:31:28;;;;;;;11.43;4.03;;;23.90;41.40;;;;;;4965322;28;86907;-87
2023/06/04 11:33:53;;;;;;;12.73;3.53;;;23.90;41.10;;;;;;4966172;28;85926;-87
2023/06/04 11:36:29;;;;;;;20.13;5.13;;;23.80;41.20;;;;;;4965884;28;85714;-87
2023/06/04 11:38:55;;;;;;;11.98;3.88;;;23.80;41.00;;;;;;4968656;28;86091;-85
2023/06/04 11:41:21;;;;;;;14.32;3.97;;;23.80;41.60;;;;;;4972752;28;89389;-88
2023/06/04 11:43:50;;;;;;;8.25;3.15;;;23.80;41.60;;;;;;4964580;28;87918;-85
2023/06/04 11:46:15;;;;;;;10.38;3.45;;;23.80;40.40;;;;;;4967445;28;86420;-89
2023/06/04 11:48:42;;;;;;;11.23;3.63;;;23.80;40.40;;;;;;4961851;28;85770;-87
2023/06/04 11:51:11;;;;;;;8.32;2.67;;;23.80;39.90;;;;;;4968472;28;89624;-88
2023/06/04 11:53:37;;;;;;;10.52;3.47;;;23.80;40.40;;;;;;4963515;28;86948;-87
2023/06/04 11:56:04;;;;;;;7.22;3.00;;;23.80;40.60;;;;;;4964195;28;86421;-87
2023/06/04 11:58:30;;;;;;;12.30;3.58;;;23.80;39.90;;;;;;4968103;28;87557;-89
2023/06/04 12:00:57;;;;;;;8.90;2.33;;;23.90;40.00;;;;;;4970046;28;89108;-88
2023/06/04 12:03:40;;;;;;;6.07;2.45;;;23.80;40.30;;;;;;4964390;28;88520;-88
2023/06/04 12:06:15;;;;;;;7.22;2.88;;;23.80;39.00;;;;;;4972804;28;86527;-88
2023/06/04 12:08:48;;;;;;;6.97;3.15;;;23.70;39.60;;;;;;4953985;28;85737;-86
2023/06/04 12:11:31;;;;;;;8.15;2.47;;;23.70;40.30;;;;;;4955588;28;88136;-88
2023/06/04 12:13:58;;;;;;;6.22;2.47;;;23.70;39.70;;;;;;4955768;28;88912;-87
2023/06/04 12:16:24;;;;;;;5.68;2.47;;;23.70;40.00;;;;;;4963209;28;86447;-88
2023/06/04 12:18:50;;;;;;;5.40;2.00;;;23.70;40.20;;;;;;5001471;28;86225;-88
2023/06/04 12:21:26;;;;;;;3.40;1.85;;;23.70;40.00;;;;;;4966249;28;88790;-88
2023/06/04 12:24:13;;;;;;;9.93;2.20;;;23.70;39.00;;;;;;4963046;28;89074;-88
2023/06/04 12:26:48;;;;;;;5.93;2.40;;;23.70;38.50;;;;;;4962549;28;86652;-87
2023/06/04 12:29:15;;;;;;;6.43;2.30;;;23.80;39.30;;;;;;4956979;28;86172;-86
2023/06/04 12:31:43;;;;;;;4.47;2.15;;;23.80;39.60;;;;;;4954261;28;89400;-88
2023/06/04 12:34:10;;;;;;;4.47;1.80;;;23.80;39.60;;;;;;4954305;28;88553;-89
2023/06/04 12:36:36;;;;;;;8.80;2.17;;;23.80;39.50;;;;;;4956460;28;86201;-88
2023/06/04 12:39:04;;;;;;;7.50;2.42;;;23.80;40.00;;;;;;4955218;28;86503;-88
2023/06/04 12:41:31;;;;;;;6.15;2.03;;;23.80;40.10;;;;;;4955707;28;88385;-86
2023/06/04 12:43:57;;;;;;;7.25;2.42;;;23.80;40.10;;;;;;4954412;28;89190;-87